Time;durP1;ratioP1;P1;durP2;ratioP2;P2;SDS_P1;SDS_P2;PMS_P1;PMS_P2;Temp;Humidity;BMP_temperature;BMP_pressure;BME280_temperature;BME280_humidity;BME280_pressure;Samples;Min_cycle;Max_cycle;Signal;HPM_P1;HPM_P2
2022/09/24 00:00:34;;;;;;;46.10;35.30;;;;;;;;;;5060761;28;20036;-75
2022/09/24 00:03:00;;;;;;;48.92;36.08;;;;;;;;;;5058435;28;20786;-74
2022/09/24 00:05:25;;;;;;;49.90;37.30;;;;;;;;;;5054573;28;20424;-74
2022/09/24 00:07:50;;;;;;;51.90;37.25;;;;;;;;;;5044819;28;20028;-76
2022/09/24 00:10:16;;;;;;;34.47;25.45;;;;;;;;;;5060376;28;20029;-76
2022/09/24 00:12:41;;;;;;;59.20;40.47;;;;;;;;;;5055776;28;20028;-76
2022/09/24 00:15:07;;;;;;;55.22;39.50;;;;;;;;;;5042281;28;20080;-74
2022/09/24 00:17:32;;;;;;;45.40;32.53;;;;;;;;;;5055277;28;20029;-74
2022/09/24 00:19:57;;;;;;;48.08;34.17;;;;;;;;;;5059375;28;20025;-73
2022/09/24 00:22:23;;;;;;;41.45;30.58;;;;;;;;;;5046094;28;20032;-74
2022/09/24 00:27:32;;;;;;;52.13;36.95;;;;;;;;;;5059967;28;20086;-74
2022/09/24 00:29:57;;;;;;;43.38;31.02;;;;;;;;;;5047287;28;20024;-75
2022/09/24 00:32:23;;;;;;;34.50;26.40;;;;;;;;;;5053426;28;20072;-75
2022/09/24 00:34:50;;;;;;;32.60;24.60;;;;;;;;;;5041224;28;20040;-73
2022/09/24 00:37:17;;;;;;;49.15;31.73;;;;;;;;;;5057212;28;20028;-75
2022/09/24 00:39:44;;;;;;;42.22;30.83;;;;;;;;;;5056827;28;20020;-72
2022/09/24 00:42:10;;;;;;;40.72;28.08;;;;;;;;;;5060241;28;20029;-74
2022/09/24 00:44:44;;;;;;;39.55;27.98;;;;;;;;;;5057380;28;20052;-72
2022/09/24 00:47:17;;;;;;;52.38;33.20;;;;;;;;;;5042450;28;20039;-73
2022/09/24 00:49:42;;;;;;;41.00;28.60;;;;;;;;;;5053933;28;20029;-76
2022/09/24 00:52:08;;;;;;;64.20;47.53;;;;;;;;;;5047814;28;20017;-75
2022/09/24 00:54:34;;;;;;;55.15;40.08;;;;;;;;;;5051836;28;20036;-73
2022/09/24 00:57:00;;;;;;;56.47;35.22;;;;;;;;;;5057112;28;20428;-74
2022/09/24 00:59:26;;;;;;;55.00;33.50;;;;;;;;;;5057946;28;20415;-73
2022/09/24 01:01:54;;;;;;;45.67;28.80;;;;;;;;;;5054753;28;20483;-75
2022/09/24 01:04:20;;;;;;;48.95;30.35;;;;;;;;;;5041777;28;20033;-74
2022/09/24 01:06:46;;;;;;;51.35;31.52;;;;;;;;;;5058685;28;20039;-75
2022/09/24 01:09:12;;;;;;;74.93;43.88;;;;;;;;;;5056967;28;20074;-74
2022/09/24 01:11:47;;;;;;;73.18;44.55;;;;;;;;;;5052748;28;20032;-73
2022/09/24 01:14:12;;;;;;;77.40;45.20;;;;;;;;;;5042962;28;20309;-75
2022/09/24 01:16:56;;;;;;;77.78;42.00;;;;;;;;;;5059262;28;21050;-73
2022/09/24 01:19:24;;;;;;;68.32;39.63;;;;;;;;;;5051871;28;20039;-74
2022/09/24 01:21:56;;;;;;;68.80;40.67;;;;;;;;;;5048059;28;20051;-73
2022/09/24 01:24:40;;;;;;;57.60;34.20;;;;;;;;;;5054324;28;20387;-74
2022/09/24 01:27:29;;;;;;;50.05;31.30;;;;;;;;;;5057419;28;20340;-75
2022/09/24 01:29:57;;;;;;;50.03;30.90;;;;;;;;;;5059020;28;20786;-75
2022/09/24 01:32:38;;;;;;;46.35;28.70;;;;;;;;;;5056335;28;20024;-73
2022/09/24 01:35:25;;;;;;;32.92;23.00;;;;;;;;;;5044911;28;20093;-74
2022/09/24 01:37:53;;;;;;;37.00;26.10;;;;;;;;;;5035226;28;20036;-74
2022/09/24 01:40:19;;;;;;;46.90;29.27;;;;;;;;;;5057751;28;20036;-75
2022/09/24 01:42:45;;;;;;;53.95;34.28;;;;;;;;;;5038702;28;20040;-76
2022/09/24 01:45:11;;;;;;;49.70;31.50;;;;;;;;;;5057225;28;20049;-74
2022/09/24 01:47:38;;;;;;;44.05;29.58;;;;;;;;;;5055446;28;20078;-76
2022/09/24 01:50:04;;;;;;;41.67;28.83;;;;;;;;;;5057507;28;20398;-74
2022/09/24 01:52:33;;;;;;;37.08;25.38;;;;;;;;;;5057821;28;20020;-74
2022/09/24 01:54:59;;;;;;;26.20;18.65;;;;;;;;;;5054763;28;20025;-74
2022/09/24 01:57:31;;;;;;;18.85;15.43;;;;;;;;;;5041814;28;20029;-75
2022/09/24 01:59:59;;;;;;;17.33;13.88;;;;;;;;;;5041219;28;20024;-76
2022/09/24 02:02:32;;;;;;;13.70;11.60;;;;;;;;;;5041274;28;20094;-74
2022/09/24 02:05:04;;;;;;;18.08;13.55;;;;;;;;;;5055591;28;20023;-74
2022/09/24 02:07:38;;;;;;;14.98;12.85;;;;;;;;;;5053641;28;20079;-75
2022/09/24 02:10:04;;;;;;;16.17;14.20;;;;;;;;;;5058557;28;20025;-75
2022/09/24 02:12:36;;;;;;;36.03;25.85;;;;;;;;;;5057622;28;20327;-74
2022/09/24 02:15:17;;;;;;;50.95;34.25;;;;;;;;;;5058520;28;20074;-74
2022/09/24 02:17:45;;;;;;;43.88;32.10;;;;;;;;;;5055837;28;20032;-74
2022/09/24 02:20:19;;;;;;;39.13;28.83;;;;;;;;;;5036104;28;20389;-75
2022/09/24 02:22:46;;;;;;;35.78;27.58;;;;;;;;;;5059081;28;20400;-75
2022/09/24 02:25:14;;;;;;;34.13;26.45;;;;;;;;;;5058362;28;20504;-74
2022/09/24 02:27:39;;;;;;;24.70;19.48;;;;;;;;;;5057915;28;20029;-74
2022/09/24 02:30:06;;;;;;;21.88;19.35;;;;;;;;;;5059183;28;20043;-73
2022/09/24 02:32:33;;;;;;;20.83;17.80;;;;;;;;;;5056230;28;20025;-75
2022/09/24 02:35:02;;;;;;;17.38;15.57;;;;;;;;;;5058203;28;21405;-75
2022/09/24 02:37:28;;;;;;;19.10;17.03;;;;;;;;;;5058135;28;20028;-74
2022/09/24 02:39:53;;;;;;;22.25;19.00;;;;;;;;;;5057002;28;20031;-74
2022/09/24 02:42:19;;;;;;;23.20;20.38;;;;;;;;;;5058177;28;20127;-72
2022/09/24 02:44:46;;;;;;;27.17;23.38;;;;;;;;;;5059329;28;20056;-73
2022/09/24 02:47:12;;;;;;;24.25;20.98;;;;;;;;;;5055104;28;20021;-72
2022/09/24 02:49:37;;;;;;;20.52;17.15;;;;;;;;;;5062583;28;20032;-72
2022/09/24 02:52:03;;;;;;;14.63;12.45;;;;;;;;;;5060099;28;20036;-75
2022/09/24 02:54:29;;;;;;;19.05;16.35;;;;;;;;;;5061121;28;20020;-73
2022/09/24 02:56:54;;;;;;;17.63;15.65;;;;;;;;;;5061311;28;20035;-74
2022/09/24 02:59:19;;;;;;;17.25;15.18;;;;;;;;;;5060408;28;20037;-74
2022/09/24 03:01:45;;;;;;;17.60;15.15;;;;;;;;;;5061485;28;20028;-74
2022/09/24 03:04:11;;;;;;;14.88;12.98;;;;;;;;;;5061761;28;20024;-72
2022/09/24 03:06:36;;;;;;;17.10;15.30;;;;;;;;;;5060098;28;20081;-75
2022/09/24 03:09:02;;;;;;;17.48;15.27;;;;;;;;;;5062555;28;20016;-73
2022/09/24 03:11:28;;;;;;;17.80;15.60;;;;;;;;;;5062224;28;20361;-73
2022/09/24 03:13:54;;;;;;;16.67;13.70;;;;;;;;;;5044297;28;20024;-73
2022/09/24 03:16:19;;;;;;;11.18;10.07;;;;;;;;;;5062198;28;21259;-75
2022/09/24 03:18:46;;;;;;;12.77;10.88;;;;;;;;;;5061361;28;20430;-75
2022/09/24 03:21:12;;;;;;;13.85;12.48;;;;;;;;;;5060665;28;21005;-73
2022/09/24 03:23:37;;;;;;;14.98;13.05;;;;;;;;;;5049817;28;20031;-75
2022/09/24 03:26:03;;;;;;;16.35;13.35;;;;;;;;;;5051920;28;20036;-75
2022/09/24 03:28:28;;;;;;;14.10;12.70;;;;;;;;;;5060755;28;20070;-74
2022/09/24 03:31:00;;;;;;;13.75;12.35;;;;;;;;;;5060994;28;20071;-75
2022/09/24 03:33:28;;;;;;;13.98;12.48;;;;;;;;;;5061588;28;20507;-75
2022/09/24 03:36:05;;;;;;;14.98;13.25;;;;;;;;;;5060081;28;20036;-75
2022/09/24 03:38:30;;;;;;;27.90;24.88;;;;;;;;;;5061847;28;20027;-75
2022/09/24 03:40:56;;;;;;;34.08;29.88;;;;;;;;;;5058703;28;20139;-75
2022/09/24 03:43:22;;;;;;;32.88;27.58;;;;;;;;;;5061915;28;20342;-74
2022/09/24 03:45:48;;;;;;;37.95;28.75;;;;;;;;;;5059874;28;20056;-73
2022/09/24 03:48:13;;;;;;;35.33;25.38;;;;;;;;;;5062380;28;20030;-74
2022/09/24 03:50:39;;;;;;;33.13;25.73;;;;;;;;;;5059022;28;20032;-74
2022/09/24 03:53:04;;;;;;;33.05;24.98;;;;;;;;;;5060045;28;20049;-76
2022/09/24 03:55:30;;;;;;;26.65;20.63;;;;;;;;;;5060666;28;20036;-74
2022/09/24 03:57:55;;;;;;;17.35;15.40;;;;;;;;;;5059813;28;20024;-74
2022/09/24 04:00:22;;;;;;;17.85;15.95;;;;;;;;;;5059231;28;20056;-77
2022/09/24 04:02:48;;;;;;;24.00;19.45;;;;;;;;;;5060181;28;20032;-74
2022/09/24 04:05:13;;;;;;;17.02;15.23;;;;;;;;;;5061841;28;20024;-75
2022/09/24 04:07:39;;;;;;;20.23;17.27;;;;;;;;;;5061270;28;20038;-76
2022/09/24 04:10:04;;;;;;;89.20;63.25;;;;;;;;;;5060315;28;20424;-76
2022/09/24 04:12:30;;;;;;;72.30;52.15;;;;;;;;;;5059174;28;20032;-75
2022/09/24 04:14:55;;;;;;;55.72;39.75;;;;;;;;;;5061029;28;20490;-77
2022/09/24 04:17:20;;;;;;;51.50;37.55;;;;;;;;;;5059827;28;20541;-77
2022/09/24 04:19:46;;;;;;;41.45;32.67;;;;;;;;;;5060305;28;20021;-77
2022/09/24 04:22:11;;;;;;;38.65;27.00;;;;;;;;;;5059603;28;20036;-75
2022/09/24 04:24:37;;;;;;;27.00;21.83;;;;;;;;;;5060356;28;20024;-75
2022/09/24 04:27:02;;;;;;;18.95;14.27;;;;;;;;;;5061125;28;20017;-75
2022/09/24 04:29:27;;;;;;;18.42;15.57;;;;;;;;;;5058983;28;20444;-75
2022/09/24 04:31:53;;;;;;;15.77;14.15;;;;;;;;;;5036847;28;20027;-75
2022/09/24 04:34:19;;;;;;;15.20;13.60;;;;;;;;;;5050286;28;20060;-76
2022/09/24 04:36:45;;;;;;;16.55;13.35;;;;;;;;;;5060884;28;20060;-75
2022/09/24 04:39:10;;;;;;;13.15;11.70;;;;;;;;;;5039837;28;20075;-75
2022/09/24 04:41:36;;;;;;;31.55;25.67;;;;;;;;;;5056418;28;20033;-74
2022/09/24 04:44:03;;;;;;;38.38;27.73;;;;;;;;;;5059398;28;20115;-75
2022/09/24 04:46:32;;;;;;;34.45;25.02;;;;;;;;;;5048442;28;21259;-75
2022/09/24 04:48:57;;;;;;;46.08;37.92;;;;;;;;;;5052340;28;20409;-75
2022/09/24 04:51:23;;;;;;;83.20;63.47;;;;;;;;;;5039987;28;20016;-76
2022/09/24 04:53:49;;;;;;;116.03;80.57;;;;;;;;;;5058722;28;20115;-75
2022/09/24 04:56:15;;;;;;;72.40;50.03;;;;;;;;;;5057846;28;21900;-75
2022/09/24 04:58:40;;;;;;;45.75;36.65;;;;;;;;;;5058217;28;20034;-75
2022/09/24 05:01:05;;;;;;;62.13;49.08;;;;;;;;;;5060974;28;20455;-74
2022/09/24 05:03:32;;;;;;;41.70;35.67;;;;;;;;;;5057544;28;20039;-74
2022/09/24 05:05:57;;;;;;;34.42;28.75;;;;;;;;;;5059563;28;20039;-75
2022/09/24 05:08:22;;;;;;;48.60;41.42;;;;;;;;;;5049293;28;20025;-75
2022/09/24 05:10:48;;;;;;;38.88;33.03;;;;;;;;;;5050215;28;20432;-75
2022/09/24 05:13:13;;;;;;;66.90;54.45;;;;;;;;;;5058742;28;20024;-76
2022/09/24 05:15:38;;;;;;;49.25;40.60;;;;;;;;;;5056799;28;20029;-75
2022/09/24 05:18:05;;;;;;;49.55;38.85;;;;;;;;;;5057788;28;20026;-76
2022/09/24 05:20:30;;;;;;;73.10;57.85;;;;;;;;;;5058785;28;20024;-75
2022/09/24 05:22:56;;;;;;;69.32;55.28;;;;;;;;;;5057435;28;20021;-75
2022/09/24 05:25:22;;;;;;;132.45;92.03;;;;;;;;;;5038369;28;20070;-76
2022/09/24 05:27:51;;;;;;;44.60;36.22;;;;;;;;;;5043244;28;20089;-75
2022/09/24 05:30:17;;;;;;;59.97;46.50;;;;;;;;;;5059862;28;20067;-76
2022/09/24 05:32:43;;;;;;;56.47;40.75;;;;;;;;;;5058364;28;20055;-74
2022/09/24 05:35:08;;;;;;;116.40;74.90;;;;;;;;;;5057387;28;20486;-76
2022/09/24 05:37:34;;;;;;;102.60;63.30;;;;;;;;;;5041575;28;20094;-76
2022/09/24 05:40:46;;;;;;;315.30;177.02;;;;;;;;;;5037308;28;20145;-77
2022/09/24 05:42:48;;;;;;;147.48;86.97;;;;;;;;;;5036107;28;20032;-75
2022/09/24 05:45:16;;;;;;;79.93;54.17;;;;;;;;;;5036965;28;20177;-76
2022/09/24 05:47:44;;;;;;;51.58;37.25;;;;;;;;;;5041243;28;20116;-76
2022/09/24 05:50:09;;;;;;;24.23;20.25;;;;;;;;;;5039479;28;20071;-72
2022/09/24 05:52:34;;;;;;;66.72;42.85;;;;;;;;;;5035295;28;20029;-73
2022/09/24 05:55:00;;;;;;;221.00;116.70;;;;;;;;;;5045395;28;20033;-75
2022/09/24 05:57:25;;;;;;;291.17;160.27;;;;;;;;;;5055953;28;20107;-75
2022/09/24 05:59:52;;;;;;;68.88;47.40;;;;;;;;;;5058074;28;20035;-75
2022/09/24 06:02:17;;;;;;;37.05;31.38;;;;;;;;;;5044043;28;20021;-75
2022/09/24 06:04:42;;;;;;;44.70;35.25;;;;;;;;;;5051342;28;20078;-76
2022/09/24 06:07:08;;;;;;;96.35;69.03;;;;;;;;;;5039743;28;20464;-75
2022/09/24 06:09:34;;;;;;;58.17;41.92;;;;;;;;;;5035467;28;20113;-76
2022/09/24 06:12:00;;;;;;;63.72;51.42;;;;;;;;;;5037573;28;20468;-73
2022/09/24 06:14:27;;;;;;;73.47;58.90;;;;;;;;;;5058340;28;20039;-72
2022/09/24 06:16:52;;;;;;;74.13;61.58;;;;;;;;;;5058010;28;20048;-72
2022/09/24 06:19:17;;;;;;;133.82;102.50;;;;;;;;;;5058650;28;20081;-75
2022/09/24 06:21:43;;;;;;;85.47;64.07;;;;;;;;;;5058421;28;20032;-71
2022/09/24 06:24:08;;;;;;;97.35;71.43;;;;;;;;;;5056351;28;20036;-75
2022/09/24 06:26:35;;;;;;;50.47;40.88;;;;;;;;;;5053765;28;20141;-74
2022/09/24 06:29:00;;;;;;;58.60;42.38;;;;;;;;;;5037449;28;20466;-73
2022/09/24 06:31:25;;;;;;;61.00;45.17;;;;;;;;;;5034399;28;20137;-72
2022/09/24 06:33:51;;;;;;;61.97;40.20;;;;;;;;;;5035857;28;20028;-72
2022/09/24 06:36:16;;;;;;;32.83;29.10;;;;;;;;;;5045480;28;20021;-74
2022/09/24 06:38:44;;;;;;;23.20;20.65;;;;;;;;;;5057969;28;20107;-73
2022/09/24 06:41:09;;;;;;;19.20;17.20;;;;;;;;;;5055364;28;20361;-74
2022/09/24 06:43:35;;;;;;;20.23;17.58;;;;;;;;;;5034292;28;20035;-73
2022/09/24 06:46:00;;;;;;;21.67;19.40;;;;;;;;;;5053751;28;20459;-74
2022/09/24 06:48:27;;;;;;;28.50;25.50;;;;;;;;;;5045144;28;20045;-74
2022/09/24 06:50:56;;;;;;;23.48;20.75;;;;;;;;;;5041471;28;20396;-75
2022/09/24 06:53:21;;;;;;;15.63;14.02;;;;;;;;;;5041517;28;20111;-71
2022/09/24 06:55:47;;;;;;;22.42;18.25;;;;;;;;;;5047835;28;20099;-72
2022/09/24 06:58:14;;;;;;;16.35;13.23;;;;;;;;;;5034631;28;20159;-73
2022/09/24 07:00:40;;;;;;;33.20;26.02;;;;;;;;;;5039274;28;20068;-72
2022/09/24 07:03:06;;;;;;;17.75;14.75;;;;;;;;;;5036152;28;20044;-73
2022/09/24 07:05:32;;;;;;;50.22;37.90;;;;;;;;;;5036687;28;20037;-75
2022/09/24 07:07:57;;;;;;;44.58;34.78;;;;;;;;;;5036527;28;20121;-75
2022/09/24 07:10:24;;;;;;;25.05;21.08;;;;;;;;;;5040484;28;20447;-73
2022/09/24 07:12:49;;;;;;;16.23;14.30;;;;;;;;;;5047802;28;20025;-73
2022/09/24 07:15:15;;;;;;;11.18;10.05;;;;;;;;;;5046894;28;20411;-73
2022/09/24 07:17:40;;;;;;;37.28;29.20;;;;;;;;;;5033421;28;20104;-74
2022/09/24 07:20:05;;;;;;;19.67;15.77;;;;;;;;;;5037326;28;20448;-72
2022/09/24 07:22:31;;;;;;;61.13;44.10;;;;;;;;;;5037323;28;20013;-73
2022/09/24 07:24:56;;;;;;;84.72;62.50;;;;;;;;;;5040267;28;20126;-75
2022/09/24 07:27:21;;;;;;;12.68;10.68;;;;;;;;;;5036807;28;20033;-72
2022/09/24 07:29:47;;;;;;;11.50;10.30;;;;;;;;;;5043727;28;20435;-72
2022/09/24 07:32:14;;;;;;;7.78;6.00;;;;;;;;;;5040510;28;20814;-75
2022/09/24 07:34:40;;;;;;;10.43;8.85;;;;;;;;;;5039608;28;20096;-75
2022/09/24 07:37:05;;;;;;;56.10;40.03;;;;;;;;;;5054638;28;20101;-74
2022/09/24 07:39:31;;;;;;;141.63;115.20;;;;;;;;;;5040570;28;20070;-75
2022/09/24 07:41:57;;;;;;;46.65;41.30;;;;;;;;;;5040751;28;20887;-74
2022/09/24 07:44:22;;;;;;;86.05;70.47;;;;;;;;;;5041433;28;20049;-76
2022/09/24 07:46:48;;;;;;;11.18;10.00;;;;;;;;;;5051947;28;20054;-76
2022/09/24 07:49:14;;;;;;;5.47;5.00;;;;;;;;;;5060991;28;21641;-78
2022/09/24 07:51:39;;;;;;;22.33;18.10;;;;;;;;;;5042507;28;20049;-74
2022/09/24 07:54:04;;;;;;;27.85;21.83;;;;;;;;;;5037945;28;20017;-75
2022/09/24 07:56:31;;;;;;;11.40;9.00;;;;;;;;;;5040947;28;20025;-74
2022/09/24 07:58:56;;;;;;;6.40;5.30;;;;;;;;;;5037388;28;20028;-76
2022/09/24 08:01:21;;;;;;;17.40;15.48;;;;;;;;;;5038191;28;20025;-75
2022/09/24 08:03:47;;;;;;;10.35;9.35;;;;;;;;;;5041248;28;20036;-75
2022/09/24 08:06:12;;;;;;;5.50;5.00;;;;;;;;;;5041136;28;20470;-70
2022/09/24 08:08:38;;;;;;;5.60;4.40;;;;;;;;;;5038207;28;20455;-79
2022/09/24 08:11:07;;;;;;;15.93;14.23;;;;;;;;;;5040616;28;20050;-77
2022/09/24 08:13:33;;;;;;;6.97;6.25;;;;;;;;;;5040448;28;20099;-76
2022/09/24 08:15:59;;;;;;;10.43;8.52;;;;;;;;;;5048038;28;20044;-76
2022/09/24 08:18:24;;;;;;;12.00;10.80;;;;;;;;;;5057655;28;20082;-76
2022/09/24 08:20:50;;;;;;;11.32;10.23;;;;;;;;;;5060564;28;20025;-78
2022/09/24 08:23:15;;;;;;;9.30;8.40;;;;;;;;;;5061353;28;20024;-76
2022/09/24 08:25:41;;;;;;;22.88;11.07;;;;;;;;;;5060385;28;20037;-77
2022/09/24 08:28:07;;;;;;;22.80;13.23;;;;;;;;;;5059918;28;20072;-77
2022/09/24 08:30:33;;;;;;;8.55;6.22;;;;;;;;;;5058697;28;20032;-76
2022/09/24 08:32:58;;;;;;;8.30;7.50;;;;;;;;;;5039773;28;20029;-78
2022/09/24 08:35:24;;;;;;;4.38;3.78;;;;;;;;;;5039903;28;20043;-78
2022/09/24 08:37:52;;;;;;;4.63;4.00;;;;;;;;;;5037075;28;20036;-77
2022/09/24 08:40:20;;;;;;;4.78;4.30;;;;;;;;;;5037502;28;20467;-77
2022/09/24 08:42:45;;;;;;;4.38;3.97;;;;;;;;;;5040833;28;20068;-76
2022/09/24 08:47:57;;;;;;;8.75;7.30;;;;;;;;;;5059854;28;20028;-77
2022/09/24 08:50:30;;;;;;;8.38;7.47;;;;;;;;;;5057634;28;20016;-77
2022/09/24 08:53:14;;;;;;;5.32;4.82;;;;;;;;;;5059362;28;20024;-79
2022/09/24 08:55:41;;;;;;;7.63;6.82;;;;;;;;;;5061857;28;20024;-76
2022/09/24 08:58:09;;;;;;;7.20;6.43;;;;;;;;;;5041249;28;20032;-78
2022/09/24 09:00:54;;;;;;;8.07;6.70;;;;;;;;;;5058254;28;20033;-77
2022/09/24 09:03:28;;;;;;;11.18;10.18;;;;;;;;;;5059576;28;20025;-77
2022/09/24 09:05:58;;;;;;;10.40;9.30;;;;;;;;;;5055443;28;20115;-77
2022/09/24 09:08:23;;;;;;;10.52;9.43;;;;;;;;;;5060092;28;20107;-78
2022/09/24 09:10:52;;;;;;;4.78;4.30;;;;;;;;;;5059310;28;20048;-77
2022/09/24 09:13:20;;;;;;;6.75;5.63;;;;;;;;;;5059367;28;20024;-78
2022/09/24 09:15:50;;;;;;;6.57;4.80;;;;;;;;;;5061660;28;20164;-78
2022/09/24 09:18:20;;;;;;;15.77;14.13;;;;;;;;;;5062603;28;20028;-77
2022/09/24 09:20:45;;;;;;;;;;;;;;;;;;5061203;28;20020;-76
2022/09/24 09:23:17;;;;;;;12.63;9.63;;;;;;;;;;5060080;28;19917;-76
2022/09/24 09:25:51;;;;;;;12.85;10.35;;;;;;;;;;5059722;28;20320;-78
2022/09/24 09:28:16;;;;;;;20.98;14.95;;;;;;;;;;5060877;28;20356;-78
2022/09/24 09:30:48;;;;;;;18.10;10.93;;;;;;;;;;5060543;28;20034;-79
2022/09/24 09:33:26;;;;;;;46.53;23.40;;;;;;;;;;5061506;28;20031;-77
2022/09/24 09:36:00;;;;;;;13.63;8.52;;;;;;;;;;5060702;28;20028;-77
2022/09/24 09:38:43;;;;;;;10.77;8.85;;;;;;;;;;5061434;28;20359;-77
2022/09/24 09:41:27;;;;;;;6.53;4.63;;;;;;;;;;5059221;28;20029;-79
2022/09/24 09:44:01;;;;;;;6.28;5.68;;;;;;;;;;5060385;28;20082;-77
2022/09/24 09:46:30;;;;;;;3.85;3.58;;;;;;;;;;5060870;28;20439;-78
2022/09/24 09:48:58;;;;;;;3.80;3.17;;;;;;;;;;5061369;28;20044;-77
2022/09/24 09:51:25;;;;;;;4.80;4.03;;;;;;;;;;5061558;28;20043;-77
2022/09/24 09:53:57;;;;;;;3.63;3.30;;;;;;;;;;5061267;28;20029;-75
2022/09/24 09:56:24;;;;;;;8.52;7.65;;;;;;;;;;5059489;28;20108;-76
2022/09/24 09:58:54;;;;;;;2.97;2.78;;;;;;;;;;5060544;28;20028;-76
2022/09/24 10:01:30;;;;;;;3.10;2.83;;;;;;;;;;5059942;28;20045;-76
2022/09/24 10:03:57;;;;;;;3.97;2.92;;;;;;;;;;5061643;28;20068;-75
2022/09/24 10:06:24;;;;;;;3.10;2.90;;;;;;;;;;5060216;28;20025;-76
2022/09/24 10:08:49;;;;;;;2.50;2.30;;;;;;;;;;5058579;28;20409;-76
2022/09/24 10:11:16;;;;;;;3.88;3.30;;;;;;;;;;5060638;28;20020;-76
2022/09/24 10:13:41;;;;;;;2.92;2.67;;;;;;;;;;5058473;28;20435;-76
2022/09/24 10:16:08;;;;;;;2.80;2.60;;;;;;;;;;5061204;28;20036;-75
2022/09/24 10:18:36;;;;;;;3.75;3.05;;;;;;;;;;5057795;28;20024;-76
2022/09/24 10:21:04;;;;;;;3.20;2.90;;;;;;;;;;5061520;28;20028;-78
2022/09/24 10:23:36;;;;;;;8.65;7.07;;;;;;;;;;5059327;28;20072;-77
2022/09/24 10:26:02;;;;;;;2.60;2.40;;;;;;;;;;5060335;28;20410;-76
2022/09/24 10:31:23;;;;;;;3.28;2.63;;;;;;;;;;5061943;28;20078;-77
2022/09/24 10:33:51;;;;;;;3.55;2.60;;;;;;;;;;5060809;28;20046;-76
2022/09/24 10:36:16;;;;;;;3.30;3.00;;;;;;;;;;5058709;28;20043;-76
2022/09/24 10:38:43;;;;;;;3.65;2.53;;;;;;;;;;5058365;28;20025;-78
2022/09/24 10:41:13;;;;;;;3.50;2.90;;;;;;;;;;5061436;28;20119;-76
2022/09/24 10:43:38;;;;;;;3.95;3.55;;;;;;;;;;5059474;28;20427;-78
2022/09/24 10:46:03;;;;;;;2.88;2.53;;;;;;;;;;5061828;28;20053;-77
2022/09/24 10:48:38;;;;;;;3.00;2.80;;;;;;;;;;5058741;28;20029;-77
2022/09/24 10:51:10;;;;;;;18.77;16.98;;;;;;;;;;5059235;28;20420;-78
2022/09/24 10:53:38;;;;;;;4.50;4.10;;;;;;;;;;5060970;28;20017;-76
2022/09/24 10:56:10;;;;;;;3.30;2.97;;;;;;;;;;5060927;28;20024;-77
2022/09/24 10:58:44;;;;;;;3.80;3.28;;;;;;;;;;5057871;28;20117;-78
2022/09/24 11:01:32;;;;;;;3.50;3.20;;;;;;;;;;5059795;28;20129;-77
2022/09/24 11:04:00;;;;;;;2.88;2.67;;;;;;;;;;5058373;28;20428;-76
2022/09/24 11:06:31;;;;;;;3.45;3.17;;;;;;;;;;5058294;28;20043;-76
2022/09/24 11:08:57;;;;;;;3.78;3.00;;;;;;;;;;5061202;28;20027;-77
2022/09/24 11:11:46;;;;;;;4.82;3.00;;;;;;;;;;5063051;28;20343;-76
2022/09/24 11:14:22;;;;;;;4.40;3.60;;;;;;;;;;5046449;28;20085;-79
2022/09/24 11:16:55;;;;;;;3.60;3.30;;;;;;;;;;5063204;28;20027;-75
2022/09/24 11:19:20;;;;;;;6.25;5.75;;;;;;;;;;5064234;28;20025;-77
2022/09/24 11:21:56;;;;;;;6.50;5.80;;;;;;;;;;5063069;28;20029;-77
2022/09/24 11:24:21;;;;;;;3.63;2.60;;;;;;;;;;5063361;28;20052;-77
2022/09/24 11:27:03;;;;;;;19.75;14.60;;;;;;;;;;5061635;28;20021;-77
2022/09/24 11:29:28;;;;;;;13.82;11.85;;;;;;;;;;5064248;28;20016;-78
2022/09/24 11:31:54;;;;;;;4.90;4.50;;;;;;;;;;5065102;28;20446;-76
2022/09/24 11:34:44;;;;;;;10.38;8.95;;;;;;;;;;5065199;28;20459;-77
2022/09/24 11:37:33;;;;;;;12.55;10.85;;;;;;;;;;5064298;28;20059;-78
2022/09/24 11:39:58;;;;;;;10.70;9.60;;;;;;;;;;5046346;28;20028;-78
2022/09/24 11:42:28;;;;;;;13.75;12.35;;;;;;;;;;5064176;28;20035;-78
2022/09/24 11:45:15;;;;;;;4.07;3.78;;;;;;;;;;5063352;28;20048;-78
2022/09/24 11:47:59;;;;;;;6.88;6.18;;;;;;;;;;5061198;28;20036;-78
2022/09/24 11:50:27;;;;;;;5.68;5.13;;;;;;;;;;5061052;28;20074;-79
2022/09/24 11:52:53;;;;;;;9.02;7.95;;;;;;;;;;5061505;28;20039;-78
2022/09/24 11:55:24;;;;;;;18.63;15.60;;;;;;;;;;5062786;28;20020;-78
2022/09/24 11:58:03;;;;;;;20.02;17.63;;;;;;;;;;5059587;28;20683;-78
2022/09/24 12:00:33;;;;;;;53.05;39.10;;;;;;;;;;5063722;28;20132;-77
2022/09/24 12:03:05;;;;;;;46.65;35.45;;;;;;;;;;5060959;28;20012;-76
2022/09/24 12:05:34;;;;;;;16.02;14.20;;;;;;;;;;5063251;28;20090;-77
2022/09/24 12:08:00;;;;;;;;;;;;;;;;;;5062438;28;20038;-79
2022/09/24 12:10:25;;;;;;;6.35;5.05;;;;;;;;;;5060648;28;19924;-77
2022/09/24 12:12:53;;;;;;;6.68;6.00;;;;;;;;;;5063012;28;20094;-79
2022/09/24 12:15:23;;;;;;;8.48;7.78;;;;;;;;;;5063646;28;20033;-79
2022/09/24 12:18:07;;;;;;;7.85;7.15;;;;;;;;;;5062716;28;20039;-78
2022/09/24 12:20:40;;;;;;;17.08;9.55;;;;;;;;;;5059082;28;20525;-76
2022/09/24 12:23:11;;;;;;;10.35;7.50;;;;;;;;;;5061384;28;20440;-75
2022/09/24 12:25:38;;;;;;;23.33;14.90;;;;;;;;;;5062647;28;20064;-75
2022/09/24 12:28:04;;;;;;;10.00;8.82;;;;;;;;;;5060788;28;20400;-76
2022/09/24 12:33:34;;;;;;;7.28;6.30;;;;;;;;;;5060948;28;20039;-77
2022/09/24 12:36:03;;;;;;;13.93;10.32;;;;;;;;;;5060739;28;20054;-79
2022/09/24 12:38:37;;;;;;;9.05;8.18;;;;;;;;;;5061181;28;20024;-76
2022/09/24 12:41:10;;;;;;;5.40;4.43;;;;;;;;;;5057955;28;20479;-76
2022/09/24 12:43:41;;;;;;;6.53;5.93;;;;;;;;;;5060652;28;20031;-76
2022/09/24 12:46:14;;;;;;;6.53;3.53;;;;;;;;;;5062847;28;20048;-77
2022/09/24 12:48:42;;;;;;;7.70;5.97;;;;;;;;;;5063452;28;20032;-77
2022/09/24 12:51:09;;;;;;;4.15;3.75;;;;;;;;;;5061381;28;20370;-76
2022/09/24 12:53:40;;;;;;;8.23;6.22;;;;;;;;;;5063700;28;20352;-77
2022/09/24 12:56:06;;;;;;;4.43;4.03;;;;;;;;;;5059155;28;20042;-77
2022/09/24 12:58:42;;;;;;;5.07;4.68;;;;;;;;;;5061763;28;20020;-75
2022/09/24 13:01:25;;;;;;;5.38;4.88;;;;;;;;;;5062709;28;20090;-76
2022/09/24 13:04:00;;;;;;;3.55;2.70;;;;;;;;;;5062062;28;20027;-76
2022/09/24 13:06:31;;;;;;;3.20;2.90;;;;;;;;;;5062837;28;20032;-78
2022/09/24 13:08:57;;;;;;;3.75;3.45;;;;;;;;;;5059899;28;20415;-76
2022/09/24 13:11:33;;;;;;;3.80;3.17;;;;;;;;;;5061577;28;20071;-76
2022/09/24 13:14:01;;;;;;;7.97;6.90;;;;;;;;;;5062346;28;21077;-75
2022/09/24 13:16:26;;;;;;;4.50;3.08;;;;;;;;;;5059580;28;20027;-77
2022/09/24 13:18:53;;;;;;;4.72;3.67;;;;;;;;;;5063401;28;20028;-74
2022/09/24 13:21:23;;;;;;;3.40;2.90;;;;;;;;;;5058258;28;20020;-76
2022/09/24 13:23:49;;;;;;;4.40;3.78;;;;;;;;;;5061842;28;20036;-77
2022/09/24 13:26:23;;;;;;;4.35;3.28;;;;;;;;;;5058955;28;20040;-78
2022/09/24 13:28:54;;;;;;;5.07;4.50;;;;;;;;;;5060671;28;20035;-77
2022/09/24 13:31:39;;;;;;;7.53;6.22;;;;;;;;;;5062243;28;20185;-76
2022/09/24 13:34:10;;;;;;;4.35;3.72;;;;;;;;;;5058505;28;20017;-76
2022/09/24 13:36:37;;;;;;;3.28;2.88;;;;;;;;;;5061946;28;20032;-77
2022/09/24 13:39:21;;;;;;;5.65;2.97;;;;;;;;;;5059030;28;21093;-77
2022/09/24 13:41:52;;;;;;;3.10;2.80;;;;;;;;;;5062325;28;20063;-77
2022/09/24 13:44:24;;;;;;;5.65;4.00;;;;;;;;;;5061555;28;20076;-78
2022/09/24 13:46:53;;;;;;;6.00;4.47;;;;;;;;;;5061833;28;20036;-76
2022/09/24 13:49:20;;;;;;;6.20;3.78;;;;;;;;;;5060505;28;20119;-75
2022/09/24 13:51:56;;;;;;;3.67;3.30;;;;;;;;;;5044208;28;20068;-76
2022/09/24 13:54:25;;;;;;;7.40;5.88;;;;;;;;;;5060892;28;20032;-76
2022/09/24 13:57:10;;;;;;;5.65;3.65;;;;;;;;;;5061665;28;20037;-77
2022/09/24 13:59:35;;;;;;;4.15;3.45;;;;;;;;;;5060235;28;20462;-78
2022/09/24 14:02:01;;;;;;;6.55;4.88;;;;;;;;;;5059353;28;20032;-76
2022/09/24 14:04:26;;;;;;;5.95;5.05;;;;;;;;;;5060996;28;20439;-77
2022/09/24 14:06:56;;;;;;;9.82;4.32;;;;;;;;;;5061162;28;20171;-76
2022/09/24 14:09:29;;;;;;;6.68;4.32;;;;;;;;;;5060977;28;20815;-77
2022/09/24 14:11:57;;;;;;;8.98;5.78;;;;;;;;;;5059923;28;20040;-76
2022/09/24 14:14:23;;;;;;;11.75;7.15;;;;;;;;;;5059053;28;20427;-76
2022/09/24 14:16:49;;;;;;;7.68;4.80;;;;;;;;;;5061438;28;20028;-76
2022/09/24 14:19:15;;;;;;;5.20;3.97;;;;;;;;;;5062622;28;20320;-76
2022/09/24 14:21:44;;;;;;;6.70;4.85;;;;;;;;;;5060739;28;20031;-76
2022/09/24 14:24:12;;;;;;;6.47;4.60;;;;;;;;;;5059254;28;20025;-76
2022/09/24 14:26:40;;;;;;;6.38;4.35;;;;;;;;;;5059639;28;20046;-78
2022/09/24 14:29:14;;;;;;;29.60;21.20;;;;;;;;;;5059771;28;20039;-74
2022/09/24 14:32:00;;;;;;;21.13;13.30;;;;;;;;;;5058164;28;20392;-78
2022/09/24 14:34:31;;;;;;;13.10;9.40;;;;;;;;;;5060408;28;20027;-77
2022/09/24 14:36:58;;;;;;;20.75;15.18;;;;;;;;;;5061191;28;20036;-74
2022/09/24 14:39:26;;;;;;;17.90;11.80;;;;;;;;;;5060344;28;20082;-79
2022/09/24 14:41:52;;;;;;;11.65;9.73;;;;;;;;;;5061179;28;20107;-75
2022/09/24 14:44:23;;;;;;;15.45;11.18;;;;;;;;;;5060140;28;20048;-75